createdAt,value
2022-10-09T00:02:15.688Z,9.79
2022-10-09T00:05:02.594Z,9.68
2022-10-09T00:07:49.736Z,9.73
2022-10-09T00:10:43.440Z,9.63
2022-10-09T00:13:30.276Z,9.72
2022-10-09T00:16:17.896Z,9.65
2022-10-09T00:19:04.739Z,9.64
2022-10-09T00:21:56.316Z,9.60
2022-10-09T00:24:43.422Z,9.57
2022-10-09T00:27:30.235Z,9.47
2022-10-09T00:30:17.125Z,9.56
2022-10-09T00:33:03.915Z,9.56
2022-10-09T00:35:50.955Z,9.45
2022-10-09T00:38:40.156Z,9.46
2022-10-09T00:41:29.404Z,9.26
2022-10-09T00:44:47.359Z,9.16
2022-10-09T00:47:47.845Z,9.31
2022-10-09T00:50:56.539Z,9.32
2022-10-09T00:53:43.352Z,9.23
2022-10-09T00:56:30.383Z,8.93
2022-10-09T00:59:17.907Z,9.15
2022-10-09T01:02:07.462Z,9.22
2022-10-09T01:04:54.287Z,9.18
2022-10-09T01:08:12.324Z,9.19
2022-10-09T01:11:12.287Z,9.10
2022-10-09T01:14:27.679Z,9.10
2022-10-09T01:17:26.251Z,9.08
2022-10-09T01:20:37.260Z,9.07
2022-10-09T01:24:13.412Z,8.93
2022-10-09T01:27:21.959Z,8.85
2022-10-09T01:30:12.406Z,8.83
2022-10-09T01:33:03.135Z,8.68
2022-10-09T01:35:52.690Z,8.77
2022-10-09T01:38:41.841Z,8.82
2022-10-09T01:41:29.768Z,8.54
2022-10-09T01:44:31.547Z,8.59
2022-10-09T01:47:20.961Z,8.70
2022-10-09T01:50:27.353Z,8.62
2022-10-09T01:53:19.747Z,8.65
2022-10-09T01:56:14.445Z,8.69
2022-10-09T01:59:06.938Z,8.71
2022-10-09T02:01:59.267Z,8.65
2022-10-09T02:04:47.718Z,8.41
2022-10-09T02:07:34.792Z,8.34
2022-10-09T02:10:23.502Z,8.43
2022-10-09T02:13:10.620Z,8.48
2022-10-09T02:16:10.166Z,8.45
2022-10-09T02:19:00.710Z,8.46
2022-10-09T02:21:53.685Z,8.40
2022-10-09T02:24:42.441Z,8.38
2022-10-09T02:27:30.093Z,8.40
2022-10-09T02:30:20.451Z,8.20
2022-10-09T02:33:07.366Z,8.18
2022-10-09T02:35:33.944Z,8.07
2022-10-09T02:38:00.364Z,8.10
2022-10-09T02:40:28.907Z,8.11
2022-10-09T02:42:57.796Z,8.07
2022-10-09T02:45:26.628Z,7.99
2022-10-09T02:47:53.189Z,7.85
2022-10-09T02:50:19.733Z,7.83
2022-10-09T02:52:46.415Z,7.92
2022-10-09T02:55:15.346Z,7.93
2022-10-09T02:57:41.817Z,7.85
2022-10-09T03:00:11.250Z,7.87
2022-10-09T03:02:40.459Z,7.91
2022-10-09T03:05:09.912Z,7.91
2022-10-09T03:07:36.378Z,7.86
2022-10-09T03:10:02.946Z,7.80
2022-10-09T03:12:31.740Z,7.56
2022-10-09T03:15:00.574Z,7.21
2022-10-09T03:17:27.023Z,7.39
2022-10-09T03:19:53.650Z,7.51
2022-10-09T03:22:22.444Z,7.61
2022-10-09T03:24:48.855Z,7.50
2022-10-09T03:27:15.288Z,7.31
2022-10-09T03:29:41.736Z,7.44
2022-10-09T03:32:08.505Z,7.46
2022-10-09T03:34:37.554Z,7.38
2022-10-09T03:37:04.324Z,7.09
2022-10-09T03:39:30.935Z,7.25
2022-10-09T03:41:59.928Z,7.41
2022-10-09T03:44:26.369Z,7.32
2022-10-09T03:46:57.906Z,7.43
2022-10-09T03:49:24.478Z,7.47
2022-10-09T03:51:51.042Z,7.35
2022-10-09T03:54:17.497Z,7.01
2022-10-09T03:56:43.970Z,7.17
2022-10-09T03:59:10.472Z,7.15
2022-10-09T04:01:36.930Z,7.15
2022-10-09T04:04:06.808Z,7.15
2022-10-09T04:06:33.261Z,7.22
2022-10-09T04:09:01.130Z,7.15
2022-10-09T04:11:27.604Z,7.13
2022-10-09T04:13:56.320Z,7.03
2022-10-09T04:16:22.840Z,6.95
2022-10-09T04:18:49.309Z,6.60
2022-10-09T04:21:15.857Z,6.56
2022-10-09T04:23:44.708Z,6.79
2022-10-09T04:26:12.633Z,6.73
2022-10-09T04:28:39.547Z,6.89
2022-10-09T04:31:05.981Z,6.92
2022-10-09T04:33:32.435Z,6.90
2022-10-09T04:35:58.894Z,6.77
2022-10-09T04:38:25.439Z,6.86
2022-10-09T04:40:57.748Z,6.95
2022-10-09T04:43:28.121Z,6.66
2022-10-09T04:45:57.212Z,6.53
2022-10-09T04:48:25.929Z,6.59
2022-10-09T04:50:52.502Z,6.74
2022-10-09T04:53:21.040Z,6.61
2022-10-09T04:55:47.503Z,6.25
2022-10-09T04:58:14.465Z,6.48
2022-10-09T05:00:45.526Z,6.15
2022-10-09T05:03:12.932Z,6.18
2022-10-09T05:05:41.684Z,5.96
2022-10-09T05:08:08.221Z,6.30
2022-10-09T05:10:37.147Z,6.49
2022-10-09T05:13:06.166Z,6.49
2022-10-09T05:15:36.931Z,6.54
2022-10-09T05:18:03.463Z,6.55
2022-10-09T05:20:29.952Z,6.37
2022-10-09T05:22:59.066Z,6.49
2022-10-09T05:25:25.549Z,6.62
2022-10-09T05:27:54.429Z,6.66
2022-10-09T05:30:20.859Z,6.59
2022-10-09T05:32:50.051Z,6.69
2022-10-09T05:35:19.121Z,6.63
2022-10-09T05:37:45.718Z,6.65
2022-10-09T05:40:12.249Z,6.55
2022-10-09T05:42:38.704Z,6.69
2022-10-09T05:45:08.441Z,6.49
2022-10-09T05:47:34.904Z,6.45
2022-10-09T05:50:01.431Z,6.56
2022-10-09T05:52:30.320Z,6.62
2022-10-09T05:54:57.175Z,6.62
2022-10-09T05:57:23.634Z,6.63
2022-10-09T05:59:50.179Z,6.42
2022-10-09T06:02:16.656Z,6.60
2022-10-09T06:04:43.168Z,6.66
2022-10-09T06:07:13.169Z,6.81
2022-10-09T06:09:41.904Z,6.90
2022-10-09T06:12:08.379Z,6.99
2022-10-09T06:14:34.814Z,7.01
2022-10-09T06:17:01.719Z,7.04
2022-10-09T06:19:30.558Z,7.24
2022-10-09T06:21:59.098Z,7.26
2022-10-09T06:24:29.079Z,7.36
2022-10-09T06:26:57.238Z,7.30
2022-10-09T06:29:24.077Z,7.41
2022-10-09T06:31:50.600Z,7.38
2022-10-09T06:34:17.256Z,7.54
2022-10-09T06:36:43.774Z,7.65
2022-10-09T06:39:12.833Z,7.85
2022-10-09T06:41:39.288Z,7.92
2022-10-09T06:44:37.403Z,8.02
2022-10-09T06:47:03.875Z,8.27
2022-10-09T06:49:30.310Z,8.41
2022-10-09T06:51:56.765Z,8.59
2022-10-09T06:54:23.231Z,8.68
2022-10-09T06:56:52.022Z,8.66
2022-10-09T06:59:18.486Z,8.60
2022-10-09T07:01:47.277Z,8.46
2022-10-09T07:04:14.670Z,8.40
2022-10-09T07:06:43.990Z,8.19
2022-10-09T07:09:12.491Z,8.20
2022-10-09T07:11:42.853Z,8.18
2022-10-09T07:14:11.029Z,8.20
2022-10-09T07:16:40.952Z,7.79
2022-10-09T07:19:11.095Z,7.84
2022-10-09T07:21:43.316Z,7.72
2022-10-09T07:24:13.243Z,7.97
2022-10-09T07:26:46.403Z,8.07
2022-10-09T07:29:14.314Z,7.95
2022-10-09T07:31:40.846Z,7.95
2022-10-09T07:34:07.764Z,8.15
2022-10-09T07:36:34.763Z,8.10
2022-10-09T07:39:04.141Z,8.18
2022-10-09T07:41:33.108Z,8.19
2022-10-09T07:43:59.527Z,8.12
2022-10-09T07:46:33.705Z,8.41
2022-10-09T07:49:00.839Z,8.50
2022-10-09T07:51:29.456Z,8.69
2022-10-09T07:53:57.148Z,8.77
2022-10-09T07:56:29.592Z,9.42
2022-10-09T07:58:58.282Z,9.67
2022-10-09T08:01:27.445Z,9.94
2022-10-09T08:03:54.495Z,9.72
2022-10-09T08:06:23.243Z,10.16
2022-10-09T08:08:51.340Z,10.44
2022-10-09T08:11:18.929Z,10.80
2022-10-09T08:13:49.032Z,11.70
2022-10-09T08:16:17.103Z,13.02
2022-10-09T08:18:43.672Z,14.32
2022-10-09T08:21:15.527Z,14.93
2022-10-09T08:23:42.240Z,16.03
2022-10-09T08:26:16.381Z,16.34
2022-10-09T08:28:44.507Z,16.90
2022-10-09T08:31:13.541Z,17.17
2022-10-09T08:33:40.179Z,18.93
2022-10-09T08:36:08.101Z,19.88
2022-10-09T08:38:47.226Z,20.74
2022-10-09T08:41:29.362Z,19.39
2022-10-09T08:44:02.715Z,21.22
2022-10-09T08:46:36.323Z,21.50
2022-10-09T08:49:05.176Z,22.54
2022-10-09T08:51:37.829Z,24.28
2022-10-09T08:54:10.892Z,24.14
2022-10-09T08:56:37.998Z,22.99
2022-10-09T08:59:04.597Z,23.55
2022-10-09T09:01:34.442Z,25.06
2022-10-09T09:04:30.548Z,27.66
2022-10-09T09:07:09.486Z,26.74
2022-10-09T09:09:41.872Z,28.16
2022-10-09T09:12:20.543Z,29.66
2022-10-09T09:15:01.706Z,29.74
2022-10-09T09:17:46.167Z,32.48
2022-10-09T09:20:32.583Z,31.79
2022-10-09T09:23:01.651Z,30.31
2022-10-09T09:25:41.829Z,31.39
2022-10-09T09:28:33.271Z,35.18
2022-10-09T09:31:08.602Z,31.06
2022-10-09T09:33:44.978Z,31.96
2022-10-09T09:36:25.372Z,28.87
2022-10-09T09:41:41.106Z,32.80
2022-10-09T09:44:13.476Z,33.87
2022-10-09T09:46:43.885Z,34.14
2022-10-09T09:49:23.321Z,32.83
2022-10-09T09:51:50.755Z,31.59
2022-10-09T09:54:22.004Z,31.32
2022-10-09T09:59:44.696Z,36.42
2022-10-09T10:02:18.627Z,37.27
2022-10-09T10:05:00.699Z,38.73
2022-10-09T10:07:38.260Z,33.50
2022-10-09T10:10:24.719Z,34.99
2022-10-09T10:12:54.094Z,35.34
2022-10-09T10:15:32.452Z,32.30
2022-10-09T10:18:03.922Z,34.60
2022-10-09T10:20:41.911Z,35.38
2022-10-09T10:23:34.774Z,31.78
2022-10-09T10:26:19.485Z,33.48
2022-10-09T10:28:56.816Z,33.15
2022-10-09T10:32:13.456Z,31.89
2022-10-09T10:35:03.313Z,31.90
2022-10-09T10:37:42.345Z,31.73
2022-10-09T10:40:18.089Z,33.88
2022-10-09T10:43:01.822Z,29.77
2022-10-09T10:45:37.414Z,22.96
2022-10-09T10:48:09.349Z,20.02
2022-10-09T10:50:42.990Z,19.25
2022-10-09T10:53:39.736Z,17.71
2022-10-09T10:56:15.030Z,17.62
2022-10-09T10:59:07.908Z,17.10
2022-10-09T11:01:58.789Z,17.32
2022-10-09T11:04:55.912Z,17.51
2022-10-09T11:07:48.403Z,17.70
2022-10-09T11:10:24.016Z,17.46
2022-10-09T11:12:56.268Z,17.39
2022-10-09T11:15:58.800Z,17.41
2022-10-09T11:18:46.794Z,17.16
2022-10-09T11:21:25.493Z,17.07
2022-10-09T11:23:57.985Z,16.88
2022-10-09T11:26:36.474Z,16.61
2022-10-09T11:29:06.525Z,16.68
2022-10-09T11:31:44.440Z,16.41
2022-10-09T11:34:27.702Z,16.82
2022-10-09T11:36:55.328Z,17.06
2022-10-09T11:39:26.390Z,16.66
2022-10-09T11:41:54.754Z,16.67
2022-10-09T11:44:46.295Z,16.59
2022-10-09T11:47:17.624Z,16.52
2022-10-09T11:50:14.091Z,16.70
2022-10-09T11:52:49.309Z,16.68
2022-10-09T11:55:27.749Z,16.52
2022-10-09T11:58:09.014Z,16.62
2022-10-09T12:00:37.990Z,16.95
2022-10-09T12:03:09.759Z,16.86
2022-10-09T12:05:44.907Z,16.61
2022-10-09T12:08:25.179Z,16.67
2022-10-09T12:11:07.270Z,16.38
2022-10-09T12:13:36.646Z,16.59
2022-10-09T12:16:07.858Z,16.64
2022-10-09T12:18:38.204Z,16.81
2022-10-09T12:21:18.345Z,16.68
2022-10-09T12:23:47.699Z,16.69
2022-10-09T12:26:15.514Z,16.65
2022-10-09T12:28:54.185Z,16.57
2022-10-09T12:31:27.838Z,16.76
2022-10-09T12:34:20.800Z,16.88
2022-10-09T12:36:49.802Z,16.91
2022-10-09T12:39:24.219Z,17.04
2022-10-09T12:41:55.061Z,17.02
2022-10-09T12:44:53.252Z,16.90
2022-10-09T12:47:28.544Z,16.94
2022-10-09T12:50:21.799Z,17.11
2022-10-09T12:52:48.586Z,17.24
2022-10-09T12:55:25.046Z,16.93
2022-10-09T12:57:52.764Z,16.89
2022-10-09T13:00:19.533Z,16.92
2022-10-09T13:02:48.603Z,16.98
2022-10-09T13:05:15.779Z,17.06
2022-10-09T13:07:52.441Z,17.27
2022-10-09T13:10:22.285Z,17.21
2022-10-09T13:12:53.329Z,17.21
2022-10-09T13:15:36.947Z,17.12
2022-10-09T13:18:23.722Z,16.89
2022-10-09T13:21:20.146Z,17.03
2022-10-09T13:23:48.890Z,17.15
2022-10-09T13:26:30.025Z,17.19
2022-10-09T13:28:59.471Z,17.26
2022-10-09T13:31:26.517Z,17.35
2022-10-09T13:33:53.007Z,17.21
2022-10-09T13:36:20.264Z,17.18
2022-10-09T13:38:47.537Z,17.33
2022-10-09T13:41:23.035Z,17.03
2022-10-09T13:43:51.973Z,17.25
2022-10-09T13:46:18.501Z,17.42
2022-10-09T13:48:45.039Z,17.32
2022-10-09T13:51:13.902Z,17.26
2022-10-09T13:53:40.343Z,17.24
2022-10-09T13:56:08.440Z,17.35
2022-10-09T13:58:37.220Z,17.21
2022-10-09T14:01:03.741Z,17.31
2022-10-09T14:03:32.751Z,17.12
2022-10-09T14:06:00.738Z,17.19
2022-10-09T14:08:27.232Z,17.11
2022-10-09T14:10:58.986Z,17.23
2022-10-09T14:13:25.470Z,17.35
2022-10-09T14:15:54.476Z,17.31
2022-10-09T14:18:25.991Z,17.29
2022-10-09T14:20:54.854Z,17.29
2022-10-09T14:23:21.314Z,17.47
2022-10-09T14:25:47.765Z,17.21
2022-10-09T14:28:19.195Z,17.13
2022-10-09T14:30:45.736Z,17.05
2022-10-09T14:33:14.765Z,17.11
2022-10-09T14:35:41.244Z,17.29
2022-10-09T14:38:07.730Z,17.17
2022-10-09T14:40:34.205Z,17.21
2022-10-09T14:43:00.659Z,17.27
2022-10-09T14:45:28.904Z,17.29
2022-10-09T14:47:55.358Z,17.20
2022-10-09T14:50:23.966Z,17.29
2022-10-09T14:52:50.801Z,17.14
2022-10-09T14:55:20.182Z,17.21
2022-10-09T14:57:46.646Z,17.22
2022-10-09T15:00:13.745Z,17.12
2022-10-09T15:02:40.242Z,17.10
2022-10-09T15:05:09.220Z,17.07
2022-10-09T15:07:38.088Z,16.94
2022-10-09T15:10:04.876Z,16.64
2022-10-09T15:12:31.320Z,16.53
2022-10-09T15:14:57.767Z,16.63
2022-10-09T15:17:24.258Z,16.76
2022-10-09T15:19:50.779Z,16.61
2022-10-09T15:22:17.218Z,16.39
2022-10-09T15:24:43.660Z,16.50
2022-10-09T15:27:10.100Z,16.40
2022-10-09T15:29:36.724Z,16.50
2022-10-09T15:32:03.772Z,16.48
2022-10-09T15:34:32.369Z,16.44
2022-10-09T15:37:01.347Z,16.48
2022-10-09T15:39:27.817Z,16.42
2022-10-09T15:41:54.254Z,16.31
2022-10-09T15:44:21.426Z,16.39
2022-10-09T15:46:49.160Z,16.28
2022-10-09T15:49:15.932Z,16.27
2022-10-09T15:51:42.774Z,16.15
2022-10-09T15:54:11.942Z,16.18
2022-10-09T15:56:40.174Z,16.16
2022-10-09T15:59:07.331Z,16.13
2022-10-09T16:01:33.817Z,16.14
2022-10-09T16:04:00.307Z,16.21
2022-10-09T16:06:26.838Z,16.06
2022-10-09T16:08:58.215Z,16.16
2022-10-09T16:11:26.776Z,16.19
2022-10-09T16:13:56.354Z,16.12
2022-10-09T16:16:25.470Z,15.95
2022-10-09T16:18:52.389Z,15.76
2022-10-09T16:21:27.093Z,15.56
2022-10-09T16:23:58.386Z,15.75
2022-10-09T16:26:27.757Z,15.78
2022-10-09T16:28:54.282Z,15.74
2022-10-09T16:31:20.736Z,15.72
2022-10-09T16:33:49.650Z,15.73
2022-10-09T16:36:16.734Z,15.60
2022-10-09T16:38:43.654Z,15.45
2022-10-09T16:41:17.776Z,15.52
2022-10-09T16:43:46.357Z,15.55
2022-10-09T16:46:16.696Z,15.56
2022-10-09T16:48:43.179Z,15.43
2022-10-09T16:51:12.214Z,15.17
2022-10-09T16:53:39.396Z,15.30
2022-10-09T16:56:15.622Z,15.34
2022-10-09T16:58:43.413Z,15.34
2022-10-09T17:01:10.851Z,15.27
2022-10-09T17:03:57.686Z,15.25
2022-10-09T17:06:45.587Z,15.24
2022-10-09T17:09:33.418Z,15.09
2022-10-09T17:12:20.551Z,15.11
2022-10-09T17:15:07.860Z,14.87
2022-10-09T17:17:54.636Z,14.81
2022-10-09T17:20:41.423Z,14.57
2022-10-09T17:23:28.421Z,14.66
2022-10-09T17:26:18.673Z,14.39
2022-10-09T17:29:05.560Z,14.49
2022-10-09T17:31:52.656Z,14.49
2022-10-09T17:34:42.972Z,14.53
2022-10-09T17:37:32.164Z,14.51
2022-10-09T17:40:18.920Z,14.63
2022-10-09T17:43:07.192Z,14.67
2022-10-09T17:45:53.928Z,14.61
2022-10-09T17:48:44.945Z,14.41
2022-10-09T17:51:34.454Z,14.15
2022-10-09T17:54:21.539Z,14.10
2022-10-09T17:57:12.192Z,14.11
2022-10-09T17:59:58.988Z,14.08
2022-10-09T18:02:46.671Z,13.97
2022-10-09T18:05:34.041Z,14.04
2022-10-09T18:08:22.111Z,13.90
2022-10-09T18:11:12.064Z,13.89
2022-10-09T18:13:58.967Z,13.86
2022-10-09T18:16:45.746Z,13.80
2022-10-09T18:19:32.538Z,13.79
2022-10-09T18:22:21.429Z,13.72
2022-10-09T18:25:08.376Z,13.61
2022-10-09T18:27:55.172Z,13.65
2022-10-09T18:30:46.080Z,13.53
2022-10-09T18:33:35.535Z,13.58
2022-10-09T18:36:24.524Z,13.48
2022-10-09T18:39:14.742Z,13.45
2022-10-09T18:42:02.660Z,13.51
2022-10-09T18:44:49.473Z,13.36
2022-10-09T18:47:36.309Z,13.42
2022-10-09T18:50:23.538Z,13.29
2022-10-09T18:53:11.402Z,13.38
2022-10-09T18:55:58.414Z,13.13
2022-10-09T18:58:45.584Z,13.15
2022-10-09T19:01:32.555Z,13.22
2022-10-09T19:04:19.596Z,13.21
2022-10-09T19:07:06.450Z,13.19
2022-10-09T19:09:57.168Z,13.17
2022-10-09T19:12:44.338Z,13.18
2022-10-09T19:15:31.164Z,13.26
2022-10-09T19:18:20.276Z,13.06
2022-10-09T19:21:11.515Z,13.20
2022-10-09T19:24:03.465Z,13.00
2022-10-09T19:26:50.567Z,13.00
2022-10-09T19:29:37.443Z,12.94
2022-10-09T19:32:26.750Z,12.83
2022-10-09T19:35:14.982Z,12.91
2022-10-09T19:38:03.180Z,12.62
2022-10-09T19:40:51.185Z,12.60
2022-10-09T19:43:38.386Z,12.68
2022-10-09T19:46:25.640Z,12.80
2022-10-09T19:49:12.702Z,12.74
2022-10-09T19:52:01.738Z,12.50
2022-10-09T19:54:48.653Z,12.69
2022-10-09T19:57:35.436Z,12.82
2022-10-09T20:00:22.208Z,12.66
2022-10-09T20:03:09.568Z,12.75
2022-10-09T20:06:02.720Z,12.53
2022-10-09T20:08:49.472Z,12.34
2022-10-09T20:11:36.648Z,12.51
2022-10-09T20:14:23.536Z,12.29
2022-10-09T20:17:10.302Z,12.43
2022-10-09T20:19:57.089Z,12.17
2022-10-09T20:22:43.828Z,12.49
2022-10-09T20:25:30.580Z,12.50
2022-10-09T20:28:17.504Z,12.63
2022-10-09T20:31:06.916Z,12.87
2022-10-09T20:33:55.985Z,12.39
2022-10-09T20:36:42.769Z,12.39
2022-10-09T20:39:29.784Z,12.58
2022-10-09T20:42:16.572Z,12.71
2022-10-09T20:45:03.616Z,12.83
2022-10-09T20:47:50.425Z,12.74
2022-10-09T20:50:38.715Z,12.56
2022-10-09T20:53:25.539Z,12.50
2022-10-09T20:56:14.425Z,12.56
2022-10-09T20:59:01.877Z,12.55
2022-10-09T21:01:48.756Z,12.48
2022-10-09T21:04:35.547Z,12.41
2022-10-09T21:07:22.517Z,12.30
2022-10-09T21:10:09.802Z,12.40
2022-10-09T21:12:56.647Z,12.44
2022-10-09T21:15:45.557Z,12.47
2022-10-09T21:18:35.143Z,12.59
2022-10-09T21:21:22.236Z,12.44
2022-10-09T21:24:09.011Z,12.29
2022-10-09T21:26:55.859Z,12.29
2022-10-09T21:29:42.675Z,12.41
2022-10-09T21:32:29.421Z,12.46
2022-10-09T21:35:16.187Z,12.45
2022-10-09T21:38:02.935Z,12.34
2022-10-09T21:40:50.005Z,12.42
2022-10-09T21:43:36.738Z,12.48
2022-10-09T21:46:23.731Z,12.47
2022-10-09T21:49:24.597Z,12.46
2022-10-09T21:52:11.401Z,12.25
2022-10-09T21:54:58.166Z,12.12
2022-10-09T21:57:45.263Z,11.97
2022-10-09T22:00:32.820Z,11.71
2022-10-09T22:03:24.175Z,11.76
2022-10-09T22:06:18.449Z,11.93
2022-10-09T22:09:05.637Z,12.05
2022-10-09T22:11:52.578Z,12.03
2022-10-09T22:14:39.331Z,12.00
2022-10-09T22:17:26.293Z,12.01
2022-10-09T22:20:13.099Z,12.12
2022-10-09T22:22:59.873Z,12.06
2022-10-09T22:26:01.651Z,12.13
2022-10-09T22:28:49.510Z,12.09
2022-10-09T22:31:36.315Z,12.01
2022-10-09T22:34:23.101Z,11.97
2022-10-09T22:37:09.932Z,12.06
2022-10-09T22:39:59.040Z,12.07
2022-10-09T22:42:45.951Z,12.07
2022-10-09T22:45:37.497Z,12.00
2022-10-09T22:48:24.380Z,11.88
2022-10-09T22:51:13.587Z,11.87
2022-10-09T22:54:00.682Z,11.77
2022-10-09T22:56:50.030Z,11.81
2022-10-09T22:59:36.806Z,11.84
2022-10-09T23:02:23.592Z,11.90
2022-10-09T23:05:10.356Z,11.92
2022-10-09T23:07:57.095Z,11.88
2022-10-09T23:10:44.111Z,11.78
2022-10-09T23:13:30.965Z,11.82
2022-10-09T23:16:17.776Z,11.68
2022-10-09T23:19:07.091Z,11.71
2022-10-09T23:21:54.076Z,11.79
2022-10-09T23:24:40.992Z,11.62
2022-10-09T23:27:27.908Z,11.68
2022-10-09T23:30:14.798Z,11.65
2022-10-09T23:33:01.605Z,11.42
2022-10-09T23:35:48.355Z,11.46
2022-10-09T23:38:36.189Z,11.51
2022-10-09T23:41:25.548Z,11.53
2022-10-09T23:44:12.362Z,11.38
2022-10-09T23:46:59.249Z,11.45
2022-10-09T23:49:46.055Z,11.40
2022-10-09T23:52:33.229Z,11.41
2022-10-09T23:55:20.003Z,11.39
2022-10-09T23:58:06.881Z,11.43
